createdAt,value
2023-04-17T00:02:04.651Z,49.67
2023-04-17T00:04:33.020Z,50.60
2023-04-17T00:07:03.574Z,46.42
2023-04-17T00:09:31.487Z,49.53
2023-04-17T00:11:59.423Z,47.88
2023-04-17T00:14:27.629Z,52.15
2023-04-17T00:16:55.398Z,49.15
2023-04-17T00:19:23.330Z,53.40
2023-04-17T00:21:51.148Z,50.40
2023-04-17T00:24:20.277Z,52.72
2023-04-17T00:26:48.017Z,52.53
2023-04-17T00:29:15.801Z,52.10
2023-04-17T00:31:43.579Z,52.25
2023-04-17T00:34:11.557Z,49.92
2023-04-17T00:36:39.335Z,51.85
2023-04-17T00:39:07.069Z,51.83
2023-04-17T00:41:36.464Z,53.00
2023-04-17T00:44:04.208Z,59.08
2023-04-17T00:46:32.383Z,49.65
2023-04-17T00:49:01.048Z,55.05
2023-04-17T00:51:29.133Z,49.78
2023-04-17T00:53:57.217Z,55.10
2023-04-17T00:56:26.143Z,52.92
2023-04-17T00:58:56.744Z,53.03
2023-04-17T01:01:24.501Z,51.33
2023-04-17T01:03:52.323Z,55.50
2023-04-17T01:06:20.657Z,53.15
2023-04-17T01:08:48.453Z,47.42
2023-04-17T01:11:16.128Z,57.25
2023-04-17T01:13:47.301Z,53.95
2023-04-17T01:16:16.827Z,51.85
2023-04-17T01:18:44.941Z,55.05
2023-04-17T01:21:12.999Z,58.80
2023-04-17T01:23:46.333Z,54.92
2023-04-17T01:26:18.704Z,56.67
2023-04-17T01:28:51.703Z,59.03
2023-04-17T01:31:19.485Z,60.90
2023-04-17T01:33:47.463Z,57.80
2023-04-17T01:36:15.341Z,63.35
2023-04-17T01:38:43.410Z,55.40
2023-04-17T01:41:11.192Z,60.42
2023-04-17T01:43:42.286Z,58.00
2023-04-17T01:46:10.131Z,53.90
2023-04-17T01:48:38.316Z,60.35
2023-04-17T01:51:07.052Z,63.55
2023-04-17T01:53:35.710Z,61.53
2023-04-17T01:56:03.696Z,62.67
2023-04-17T01:58:31.857Z,65.35
2023-04-17T02:01:01.367Z,68.47
2023-04-17T02:03:29.314Z,69.20
2023-04-17T02:05:57.164Z,71.45
2023-04-17T02:08:25.317Z,67.57
2023-04-17T02:10:53.168Z,68.50
2023-04-17T02:13:20.997Z,72.80
2023-04-17T02:15:48.912Z,68.28
2023-04-17T02:18:18.204Z,70.65
2023-04-17T02:20:45.897Z,76.32
2023-04-17T02:23:13.701Z,67.18
2023-04-17T02:25:42.009Z,71.38
2023-04-17T02:28:09.810Z,72.70
2023-04-17T02:30:37.833Z,71.85
2023-04-17T02:33:05.637Z,68.15
2023-04-17T02:35:35.004Z,75.18
2023-04-17T02:38:02.706Z,70.25
2023-04-17T02:40:30.531Z,71.53
2023-04-17T02:42:58.290Z,68.47
2023-04-17T02:45:26.193Z,72.60
2023-04-17T02:47:53.947Z,72.82
2023-04-17T02:50:21.967Z,81.45
2023-04-17T02:52:51.101Z,74.45
2023-04-17T02:55:19.470Z,67.45
2023-04-17T02:57:47.250Z,72.13
2023-04-17T03:00:15.434Z,69.35
2023-04-17T03:02:43.415Z,71.38
2023-04-17T03:05:12.018Z,70.80
2023-04-17T03:07:39.778Z,75.70
2023-04-17T03:10:10.099Z,75.25
2023-04-17T03:12:38.273Z,77.07
2023-04-17T03:15:08.867Z,78.38
2023-04-17T03:17:36.940Z,66.97
2023-04-17T03:20:07.405Z,74.25
2023-04-17T03:22:35.527Z,73.82
2023-04-17T03:25:03.492Z,74.95
2023-04-17T03:27:32.669Z,69.68
2023-04-17T03:30:00.540Z,73.95
2023-04-17T03:32:28.608Z,80.30
2023-04-17T03:34:56.451Z,77.30
2023-04-17T03:37:24.153Z,73.00
2023-04-17T03:39:52.036Z,73.78
2023-04-17T03:42:19.827Z,71.93
2023-04-17T03:44:48.977Z,74.28
2023-04-17T03:47:16.777Z,73.65
2023-04-17T03:49:44.524Z,75.95
2023-04-17T03:52:12.388Z,83.93
2023-04-17T03:54:40.194Z,72.97
2023-04-17T03:57:07.919Z,75.05
2023-04-17T03:59:36.002Z,73.00
2023-04-17T04:02:05.389Z,71.65
2023-04-17T04:04:33.846Z,75.80
2023-04-17T04:07:01.948Z,81.13
2023-04-17T04:09:29.658Z,77.03
2023-04-17T04:11:57.444Z,82.13
2023-04-17T04:14:25.385Z,69.28
2023-04-17T04:16:53.262Z,73.10
2023-04-17T04:19:22.587Z,73.57
2023-04-17T04:21:50.354Z,73.57
2023-04-17T04:24:20.286Z,77.95
2023-04-17T04:26:49.678Z,81.45
2023-04-17T04:29:17.982Z,80.55
2023-04-17T04:31:46.611Z,72.50
2023-04-17T04:34:16.885Z,72.47
2023-04-17T04:36:50.060Z,76.88
2023-04-17T04:39:20.561Z,73.57
2023-04-17T04:41:48.324Z,71.05
2023-04-17T04:44:16.061Z,72.25
2023-04-17T04:46:43.851Z,77.80
2023-04-17T04:49:12.248Z,74.20
2023-04-17T04:51:40.956Z,68.68
2023-04-17T04:54:10.706Z,80.10
2023-04-17T04:56:38.548Z,74.65
2023-04-17T04:59:06.252Z,75.88
2023-04-17T05:01:34.398Z,71.15
2023-04-17T05:04:02.359Z,67.72
2023-04-17T05:06:31.251Z,71.88
2023-04-17T05:08:59.002Z,69.10
2023-04-17T05:11:28.295Z,65.40
2023-04-17T05:13:56.089Z,73.22
2023-04-17T05:16:23.963Z,73.50
2023-04-17T05:18:51.964Z,68.93
2023-04-17T05:21:19.916Z,72.60
2023-04-17T05:23:47.666Z,67.97
2023-04-17T05:26:15.524Z,63.33
2023-04-17T05:28:45.756Z,67.28
2023-04-17T05:31:13.705Z,70.55
2023-04-17T05:33:41.685Z,64.03
2023-04-17T05:36:10.368Z,69.45
2023-04-17T05:38:38.381Z,67.20
2023-04-17T05:41:07.609Z,65.00
2023-04-17T05:43:36.515Z,63.35
2023-04-17T05:46:06.348Z,67.70
2023-04-17T05:48:34.203Z,70.45
2023-04-17T05:51:02.332Z,68.22
2023-04-17T05:53:31.136Z,66.28
2023-04-17T05:55:59.185Z,71.30
2023-04-17T05:58:26.936Z,67.60
2023-04-17T06:00:54.782Z,64.18
2023-04-17T06:03:24.740Z,65.90
2023-04-17T06:05:52.827Z,63.13
2023-04-17T06:08:20.734Z,65.90
2023-04-17T06:10:50.226Z,66.22
2023-04-17T06:13:17.967Z,65.00
2023-04-17T06:15:46.086Z,63.05
2023-04-17T06:18:16.140Z,66.47
2023-04-17T06:20:45.614Z,63.03
2023-04-17T06:23:13.644Z,63.97
2023-04-17T06:25:41.461Z,64.40
2023-04-17T06:28:09.367Z,61.92
2023-04-17T06:30:37.410Z,59.97
2023-04-17T06:33:05.361Z,63.08
2023-04-17T06:35:33.914Z,63.22
2023-04-17T06:38:03.366Z,60.97
2023-04-17T06:40:31.142Z,59.95
2023-04-17T06:42:58.970Z,60.35
2023-04-17T06:45:26.843Z,58.55
2023-04-17T06:47:54.636Z,60.42
2023-04-17T06:50:23.286Z,55.78
2023-04-17T06:52:51.326Z,57.60
2023-04-17T06:55:20.823Z,58.03
2023-04-17T06:57:48.622Z,54.88
2023-04-17T07:00:18.822Z,56.78
2023-04-17T07:02:47.174Z,53.88
2023-04-17T07:05:15.033Z,54.38
2023-04-17T07:07:42.815Z,51.35
2023-04-17T07:10:11.180Z,54.13
2023-04-17T07:12:40.526Z,51.45
2023-04-17T07:15:09.500Z,48.10
2023-04-17T07:17:37.386Z,54.72
2023-04-17T07:20:07.316Z,48.53
2023-04-17T07:22:35.437Z,47.20
2023-04-17T07:25:03.874Z,51.25
2023-04-17T07:27:31.681Z,46.78
2023-04-17T07:30:00.967Z,47.85
2023-04-17T07:32:29.653Z,47.97
2023-04-17T07:34:57.393Z,46.35
2023-04-17T07:37:25.632Z,44.35
2023-04-17T07:39:54.644Z,46.08
2023-04-17T07:42:22.363Z,42.08
2023-04-17T07:44:55.207Z,46.53
2023-04-17T07:47:24.398Z,46.67
2023-04-17T07:49:52.358Z,49.03
2023-04-17T07:52:20.174Z,46.83
2023-04-17T07:54:48.098Z,49.63
2023-04-17T07:57:18.065Z,48.35
2023-04-17T07:59:46.779Z,47.80
2023-04-17T08:02:15.956Z,45.63
2023-04-17T08:04:45.630Z,49.15
2023-04-17T08:07:14.541Z,46.13
2023-04-17T08:09:43.858Z,46.47
2023-04-17T08:12:11.931Z,46.60
2023-04-17T08:14:40.771Z,52.28
2023-04-17T08:17:09.008Z,46.03
2023-04-17T08:19:36.891Z,46.22
2023-04-17T08:22:07.688Z,49.00
2023-04-17T08:24:35.653Z,43.70
2023-04-17T08:27:03.805Z,44.20
2023-04-17T08:29:31.660Z,46.95
2023-04-17T08:32:13.332Z,44.13
2023-04-17T08:34:42.846Z,45.83
2023-04-17T08:37:12.354Z,46.25
2023-04-17T08:39:40.844Z,43.60
2023-04-17T08:42:13.329Z,44.85
2023-04-17T08:44:44.878Z,54.47
2023-04-17T08:47:13.953Z,43.63
2023-04-17T08:49:44.114Z,42.78
2023-04-17T08:52:14.499Z,92.28
2023-04-17T08:54:42.401Z,43.30
2023-04-17T08:57:10.306Z,37.70
2023-04-17T08:59:38.674Z,38.10
2023-04-17T09:02:08.361Z,34.40
2023-04-17T09:04:38.305Z,35.50
2023-04-17T09:07:06.950Z,36.38
2023-04-17T09:09:52.942Z,35.97
2023-04-17T09:12:21.624Z,35.05
2023-04-17T09:14:49.551Z,35.70
2023-04-17T09:17:18.986Z,35.13
2023-04-17T09:20:06.609Z,34.22
2023-04-17T09:22:35.715Z,33.22
2023-04-17T09:25:05.875Z,31.92
2023-04-17T09:27:33.988Z,32.65
2023-04-17T09:30:04.085Z,35.35
2023-04-17T09:32:33.420Z,32.92
2023-04-17T09:35:03.700Z,32.00
2023-04-17T09:37:50.017Z,31.48
2023-04-17T09:40:20.427Z,30.38
2023-04-17T09:42:59.148Z,29.13
2023-04-17T09:45:33.352Z,30.23
2023-04-17T09:48:01.475Z,31.13
2023-04-17T09:50:29.942Z,28.48
2023-04-17T09:52:58.811Z,25.08
2023-04-17T09:55:30.212Z,27.88
2023-04-17T09:58:00.005Z,24.90
2023-04-17T10:00:29.405Z,27.75
2023-04-17T10:02:59.186Z,24.98
2023-04-17T10:05:29.291Z,25.00
2023-04-17T10:07:57.376Z,23.02
2023-04-17T10:10:30.355Z,23.05
2023-04-17T10:13:01.741Z,22.98
2023-04-17T10:15:30.819Z,21.77
2023-04-17T10:18:20.826Z,23.25
2023-04-17T10:20:50.265Z,20.63
2023-04-17T10:23:30.468Z,23.00
2023-04-17T10:26:46.597Z,21.58
2023-04-17T10:29:18.637Z,21.08
2023-04-17T10:32:26.133Z,21.88
2023-04-17T10:34:56.185Z,21.00
2023-04-17T10:38:02.970Z,21.15
2023-04-17T10:40:32.550Z,21.15
2023-04-17T10:43:05.462Z,23.95
2023-04-17T10:45:58.547Z,19.63
2023-04-17T10:48:33.299Z,19.55
2023-04-17T10:51:02.490Z,20.63
2023-04-17T10:53:44.972Z,17.92
2023-04-17T10:56:18.820Z,17.20
2023-04-17T10:59:08.152Z,19.23
2023-04-17T11:01:41.478Z,18.73
2023-04-17T11:04:11.532Z,20.55
2023-04-17T11:06:42.242Z,18.52
2023-04-17T11:09:11.892Z,17.13
2023-04-17T11:11:44.765Z,18.42
2023-04-17T11:14:16.615Z,18.85
2023-04-17T11:16:47.216Z,18.30
2023-04-17T11:19:19.911Z,16.58
2023-04-17T11:21:49.970Z,17.70
2023-04-17T11:24:23.961Z,18.95
2023-04-17T11:26:51.833Z,17.95
2023-04-17T11:29:20.890Z,19.73
2023-04-17T11:31:51.897Z,18.58
2023-04-17T11:34:20.463Z,16.92
2023-04-17T11:36:51.812Z,16.33
2023-04-17T11:39:20.299Z,18.38
2023-04-17T11:41:48.183Z,16.55
2023-04-17T11:44:18.070Z,18.60
2023-04-17T11:46:52.342Z,17.45
2023-04-17T11:49:25.451Z,18.40
2023-04-17T11:51:56.743Z,16.65
2023-04-17T11:54:28.031Z,17.63
2023-04-17T11:57:01.334Z,19.10
2023-04-17T11:59:33.421Z,20.33
2023-04-17T12:02:03.900Z,16.13
2023-04-17T12:04:35.245Z,15.38
2023-04-17T12:07:03.834Z,14.97
2023-04-17T12:09:32.669Z,18.90
2023-04-17T12:12:01.378Z,14.80
2023-04-17T12:14:29.260Z,14.77
2023-04-17T12:16:57.096Z,15.10
2023-04-17T12:19:27.972Z,14.93
2023-04-17T12:21:55.849Z,14.05
2023-04-17T12:24:25.103Z,15.32
2023-04-17T12:26:53.714Z,13.93
2023-04-17T12:29:29.471Z,15.70
2023-04-17T12:32:04.881Z,13.93
2023-04-17T12:34:34.434Z,10.70
2023-04-17T12:37:02.315Z,14.93
2023-04-17T12:39:30.143Z,9.38
2023-04-17T12:41:57.936Z,19.42
2023-04-17T12:44:25.773Z,14.68
2023-04-17T12:46:53.693Z,8.07
2023-04-17T12:49:23.740Z,10.52
2023-04-17T12:51:53.148Z,9.38
2023-04-17T12:54:21.029Z,9.88
2023-04-17T12:56:48.893Z,10.63
2023-04-17T12:59:17.871Z,10.88
2023-04-17T13:01:45.763Z,10.00
2023-04-17T13:04:14.195Z,10.85
2023-04-17T13:06:42.916Z,9.88
2023-04-17T13:09:12.465Z,10.82
2023-04-17T13:11:40.512Z,12.68
2023-04-17T13:14:09.499Z,12.88
2023-04-17T13:16:37.448Z,9.88
2023-04-17T13:19:05.430Z,9.85
2023-04-17T13:21:33.286Z,10.00
2023-04-17T13:24:01.140Z,10.77
2023-04-17T13:26:30.661Z,11.50
2023-04-17T13:28:58.476Z,11.63
2023-04-17T13:31:27.698Z,11.65
2023-04-17T13:33:55.615Z,12.07
2023-04-17T13:36:24.315Z,10.13
2023-04-17T13:38:52.126Z,11.15
2023-04-17T13:41:20.117Z,11.10
2023-04-17T13:43:49.340Z,10.88
2023-04-17T13:46:17.350Z,12.68
2023-04-17T13:48:45.308Z,11.45
2023-04-17T13:51:13.331Z,12.88
2023-04-17T13:53:41.543Z,11.35
2023-04-17T13:56:10.243Z,11.57
2023-04-17T13:58:38.287Z,14.40
2023-04-17T14:01:09.027Z,16.08
2023-04-17T14:03:40.117Z,15.57
2023-04-17T14:06:09.442Z,12.25
2023-04-17T14:08:37.575Z,12.38
2023-04-17T14:11:05.435Z,12.63
2023-04-17T14:13:39.602Z,14.93
2023-04-17T14:16:34.765Z,13.02
2023-04-17T14:19:12.516Z,14.77
2023-04-17T14:21:41.715Z,11.70
2023-04-17T14:24:09.744Z,15.07
2023-04-17T14:26:38.626Z,11.20
2023-04-17T14:29:06.631Z,12.52
2023-04-17T14:31:36.028Z,13.25
2023-04-17T14:34:04.120Z,12.18
2023-04-17T14:36:31.985Z,10.98
2023-04-17T14:39:00.213Z,12.23
2023-04-17T14:41:31.049Z,13.25
2023-04-17T14:44:00.655Z,13.10
2023-04-17T14:46:29.001Z,12.38
2023-04-17T14:48:58.668Z,13.35
2023-04-17T14:51:27.399Z,14.30
2023-04-17T14:53:56.482Z,13.10
2023-04-17T14:56:24.439Z,12.55
2023-04-17T14:58:52.414Z,11.55
2023-04-17T15:01:20.895Z,12.13
2023-04-17T15:03:49.343Z,10.85
2023-04-17T15:06:19.094Z,12.10
2023-04-17T15:08:47.208Z,9.95
2023-04-17T15:11:15.982Z,9.73
2023-04-17T15:13:44.470Z,9.68
2023-04-17T15:16:12.721Z,11.00
2023-04-17T15:18:41.020Z,9.85
2023-04-17T15:21:09.459Z,9.43
2023-04-17T15:23:38.869Z,10.63
2023-04-17T15:26:06.951Z,12.93
2023-04-17T15:28:35.234Z,10.23
2023-04-17T15:31:03.347Z,11.38
2023-04-17T15:33:31.467Z,9.75
2023-04-17T15:36:00.366Z,10.07
2023-04-17T15:38:29.041Z,10.43
2023-04-17T15:40:59.096Z,9.95
2023-04-17T15:43:27.638Z,11.60
2023-04-17T15:45:56.148Z,8.95
2023-04-17T15:48:24.526Z,9.45
2023-04-17T15:50:52.554Z,9.75
2023-04-17T15:53:20.404Z,10.68
2023-04-17T15:55:48.515Z,12.02
2023-04-17T15:58:18.013Z,10.40
2023-04-17T16:00:46.097Z,10.75
2023-04-17T16:03:14.845Z,13.70
2023-04-17T16:05:43.131Z,10.55
2023-04-17T16:08:11.311Z,12.73
2023-04-17T16:10:39.566Z,10.27
2023-04-17T16:13:07.516Z,16.67
2023-04-17T16:15:36.920Z,13.00
2023-04-17T16:18:05.421Z,16.95
2023-04-17T16:20:33.399Z,9.82
2023-04-17T16:23:01.267Z,11.38
2023-04-17T16:25:29.235Z,10.20
2023-04-17T16:27:57.167Z,10.90
2023-04-17T16:30:25.307Z,11.15
2023-04-17T16:32:57.417Z,10.52
2023-04-17T16:35:25.860Z,11.20
2023-04-17T16:37:53.823Z,11.48
2023-04-17T16:40:26.759Z,12.32
2023-04-17T16:42:54.730Z,13.32
2023-04-17T16:45:22.868Z,12.57
2023-04-17T16:47:50.846Z,12.45
2023-04-17T16:50:25.661Z,14.18
2023-04-17T16:52:53.837Z,12.30
2023-04-17T16:55:21.763Z,12.85
2023-04-17T16:57:49.566Z,15.57
2023-04-17T17:00:18.432Z,13.70
2023-04-17T17:02:46.373Z,12.40
2023-04-17T17:05:15.563Z,13.20
2023-04-17T17:07:45.195Z,11.57
2023-04-17T17:10:13.075Z,11.52
2023-04-17T17:12:41.032Z,11.27
2023-04-17T17:15:09.325Z,12.27
2023-04-17T17:17:37.396Z,12.57
2023-04-17T17:20:06.381Z,12.38
2023-04-17T17:22:34.307Z,11.27
2023-04-17T17:25:04.027Z,14.77
2023-04-17T17:27:31.823Z,11.32
2023-04-17T17:30:00.459Z,12.50
2023-04-17T17:32:28.751Z,10.95
2023-04-17T17:34:58.202Z,13.05
2023-04-17T17:37:26.891Z,12.13
2023-04-17T17:39:55.138Z,11.98
2023-04-17T17:42:24.375Z,13.13
2023-04-17T17:44:52.337Z,11.63
2023-04-17T17:47:20.145Z,13.15
2023-04-17T17:49:49.450Z,15.95
2023-04-17T17:52:17.827Z,14.02
2023-04-17T17:54:45.644Z,13.60
2023-04-17T17:57:13.377Z,12.55
2023-04-17T17:59:42.742Z,13.30
2023-04-17T18:02:10.881Z,11.93
2023-04-17T18:04:38.894Z,12.10
2023-04-17T18:07:08.003Z,12.35
2023-04-17T18:09:35.843Z,12.50
2023-04-17T18:12:03.957Z,11.52
2023-04-17T18:14:31.955Z,16.27
2023-04-17T18:17:01.167Z,11.40
2023-04-17T18:19:29.090Z,12.00
2023-04-17T18:21:57.181Z,13.75
2023-04-17T18:24:25.675Z,13.50
2023-04-17T18:26:53.422Z,13.35
2023-04-17T18:29:21.155Z,14.48
2023-04-17T18:31:51.132Z,13.60
2023-04-17T18:34:23.188Z,12.43
2023-04-17T18:36:51.111Z,15.65
2023-04-17T18:39:22.368Z,15.57
2023-04-17T18:41:50.647Z,13.63
2023-04-17T18:44:24.551Z,14.27
2023-04-17T18:47:02.839Z,15.30
2023-04-17T18:49:32.107Z,14.38
2023-04-17T18:52:00.089Z,12.55
2023-04-17T18:54:27.882Z,17.90
2023-04-17T18:56:56.432Z,15.68
2023-04-17T18:59:26.148Z,19.65
2023-04-17T19:01:54.529Z,18.55
2023-04-17T19:04:22.290Z,22.65
2023-04-17T19:06:51.483Z,25.35
2023-04-17T19:09:29.961Z,21.67
2023-04-17T19:12:00.154Z,14.75
2023-04-17T19:14:28.488Z,14.68
2023-04-17T19:16:56.485Z,15.73
2023-04-17T19:19:24.378Z,17.40
2023-04-17T19:21:56.502Z,15.15
2023-04-17T19:24:24.325Z,15.82
2023-04-17T19:26:52.120Z,18.58
2023-04-17T19:29:20.063Z,16.30
2023-04-17T19:31:47.844Z,15.65
2023-04-17T19:34:15.785Z,14.73
2023-04-17T19:36:44.179Z,15.13
2023-04-17T19:39:13.761Z,15.77
2023-04-17T19:41:42.268Z,18.80
2023-04-17T19:44:11.145Z,14.45
2023-04-17T19:46:41.260Z,14.82
2023-04-17T19:49:09.545Z,15.98
2023-04-17T19:51:39.383Z,16.42
2023-04-17T19:54:07.319Z,18.80
2023-04-17T19:56:40.343Z,14.95
2023-04-17T19:59:12.563Z,16.80
2023-04-17T20:04:11.888Z,16.33
2023-04-17T20:06:40.977Z,16.38
2023-04-17T20:09:08.999Z,16.35
2023-04-17T20:11:38.544Z,15.60
2023-04-17T20:14:06.649Z,16.05
2023-04-17T20:16:37.462Z,20.27
2023-04-17T20:19:05.313Z,17.75
2023-04-17T20:21:33.280Z,15.43
2023-04-17T20:24:01.121Z,17.63
2023-04-17T20:26:29.123Z,15.52
2023-04-17T20:28:58.398Z,14.95
2023-04-17T20:31:26.244Z,16.42
2023-04-17T20:33:54.094Z,18.10
2023-04-17T20:36:22.077Z,15.48
2023-04-17T20:39:26.779Z,18.25
2023-04-17T20:41:54.995Z,15.65
2023-04-17T20:44:24.621Z,15.60
2023-04-17T20:46:52.420Z,15.07
2023-04-17T20:49:20.252Z,15.85
2023-04-17T20:51:48.018Z,16.05
2023-04-17T20:54:15.967Z,17.80
2023-04-17T20:56:44.358Z,17.77
2023-04-17T20:59:12.218Z,15.43
2023-04-17T21:01:41.433Z,16.08
2023-04-17T21:04:11.178Z,14.98
2023-04-17T21:06:39.058Z,15.40
2023-04-17T21:09:08.658Z,17.88
2023-04-17T21:11:36.434Z,15.13
2023-04-17T21:14:04.202Z,16.00
2023-04-17T21:16:32.315Z,15.18
2023-04-17T21:19:01.589Z,16.35
2023-04-17T21:21:29.358Z,16.15
2023-04-17T21:23:57.066Z,15.27
2023-04-17T21:26:24.777Z,15.45
2023-04-17T21:28:52.760Z,15.52
2023-04-17T21:31:20.621Z,18.63
2023-04-17T21:33:48.368Z,15.93
2023-04-17T21:36:19.333Z,15.98
2023-04-17T21:38:47.058Z,15.02
2023-04-17T21:41:14.831Z,16.10
2023-04-17T21:43:42.584Z,15.73
2023-04-17T21:46:10.830Z,18.48
2023-04-17T21:48:38.620Z,17.05
2023-04-17T21:51:07.012Z,17.63
2023-04-17T21:53:37.765Z,16.55
2023-04-17T21:56:07.173Z,18.85
2023-04-17T21:58:35.252Z,16.17
2023-04-17T22:01:04.182Z,14.98
2023-04-17T22:03:32.135Z,15.48
2023-04-17T22:06:00.030Z,16.45
2023-04-17T22:08:27.961Z,14.60
2023-04-17T22:10:57.104Z,16.48
2023-04-17T22:13:24.998Z,18.75
2023-04-17T22:15:52.765Z,15.43
2023-04-17T22:18:21.962Z,17.58
2023-04-17T22:20:50.144Z,14.82
2023-04-17T22:23:17.962Z,15.48
2023-04-17T22:25:45.779Z,14.95
2023-04-17T22:28:14.955Z,13.80
2023-04-17T22:30:43.165Z,16.98
2023-04-17T22:33:10.982Z,11.73
2023-04-17T22:35:38.708Z,13.38
2023-04-17T22:38:06.472Z,14.75
2023-04-17T22:40:34.862Z,12.48
2023-04-17T22:43:02.851Z,12.27
2023-04-17T22:45:32.015Z,13.38
2023-04-17T22:47:59.858Z,13.70
2023-04-17T22:50:29.681Z,10.85
2023-04-17T22:52:57.655Z,11.82
2023-04-17T22:55:25.464Z,11.50
2023-04-17T22:57:53.234Z,11.35
2023-04-17T23:00:21.100Z,14.90
2023-04-17T23:02:50.413Z,12.60
2023-04-17T23:05:18.499Z,12.38
2023-04-17T23:07:46.398Z,12.25
2023-04-17T23:10:14.234Z,12.38
2023-04-17T23:12:42.029Z,14.10
2023-04-17T23:15:11.234Z,12.35
2023-04-17T23:17:39.214Z,12.27
2023-04-17T23:20:09.374Z,11.93
2023-04-17T23:22:37.246Z,11.73
2023-04-17T23:25:05.600Z,12.00
2023-04-17T23:27:33.409Z,13.60
2023-04-17T23:30:01.230Z,12.93
2023-04-17T23:32:29.183Z,12.18
2023-04-17T23:34:56.884Z,11.18
2023-04-17T23:37:26.269Z,13.77
2023-04-17T23:39:54.152Z,12.82
2023-04-17T23:42:22.373Z,12.60
2023-04-17T23:44:50.148Z,10.27
2023-04-17T23:47:22.948Z,12.90
2023-04-17T23:49:50.728Z,11.20
2023-04-17T23:52:19.387Z,11.57
2023-04-17T23:54:48.625Z,11.25
2023-04-17T23:57:16.499Z,13.45
2023-04-17T23:59:44.334Z,13.70
